Washington, IA (52353)

1:19 PM CDT on July 23, 2017 (GMT -0500)
Washington Municipal | | Change Station
Active Advisory: Special Statement

Elev 751 ft 41.28 °N, 91.67 °W | Updated 4 minutes ago

Clear
Clear
86 °F
Feels Like 90 °F
N
17
Wind Variable Wind from WNW
Gusts 23 mph

Today
High -- | Low -- °F
--% Chance of Precip.
Yesterday
High -- | Low -- °F
Precip. -- in
Pressure 29.88 in
Visibility 10.0 miles
Clouds Clear
Heat Index 90 °F
Dew Point 70 °F
Humidity 58%
Rainfall 0.00 in
Snow Depth Not available.
5:53 AM 8:32 PM
New Moon, 0% visible
METAR KAWG 231815Z AUTO 30015G20KT 10SM CLR 30/21 A2988 RMK AO2
Pressure 29.88 in
Visibility 10.0 miles
Clouds Clear
Heat Index 90 °F
Dew Point 70 °F
Humidity 58%
Rainfall 0.00 in
Snow Depth Not available.
5:53 AM 8:32 PM
New Moon, 0% visible
METAR KAWG 231815Z AUTO 30015G20KT 10SM CLR 30/21 A2988 RMK AO2

Get Your Daily Forecast Email!

Thanks for signing up!

Be on the lookout for a verification email in your inbox.

You'll start receiving severe weather alerts in your inbox..

×

10-Day Weather Forecast

Almanac

Astronomy

Jul. 23, 2017 Rise Set
Actual Time
Civil Twilight
Nautical Twilight
Astronomical Twilight
Moon
Length of Visible Light
Length of Day
Tomorrow will be .
, % of the Moon is Illuminated

Today's Extremes

State Highs State Lows

Community

WunderPhotos

Category 6

Welcome to Category 6. This is the collective home for Weather Underground's featured writeups by Dr. Jeff Masters (right), Bob Henson (left), Chris Burt, and other regular contributors.

Nearby

Air Quality

  Air Quality AQ Index Pollutant
Not available.

Snow Depth

Station Depth Elevation

Earthquake Activity

City Distance Mag. Time & Date
Minimum magnitude displayed is 2.5.

Coastal Water Temperatures

Place Temperature

Stations

Nearby Weather Stations

Station Location Temp. Windchill Dew Point Humidity Wind Precip. Elev Updated Type
                   

Watches & Warnings

Special Statement
Issued: 8:26 AM CDT Jul. 23, 2017 – National Weather Service

... Hot and humid one more day...

One more hot and humid day is in store for areas south of a
Sigourney, Iowa to Kewanee, Illinois line. Heat index readings of
95 to 100 are expected this afternoon before a cold front moves
through the area.

If you work or spend time outside today, wear light weight and
loose fitting clothing when possible, take frequent breaks, and
drink plenty of water.



826 am CDT sun Jul 23 2017

... Hot and humid one more day...

One more hot and humid day is in store for areas south of a
Sigourney, Iowa to Kewanee, Illinois line. Heat index readings of
95 to 100 are expected this afternoon before a cold front moves
through the area.

If you work or spend time outside today, wear light weight and
loose fitting clothing when possible, take frequent breaks, and
drink plenty of water.